Time;durP1;ratioP1;P1;durP2;ratioP2;P2;SDS_P1;SDS_P2;PMS_P1;PMS_P2;Temp;Humidity;BMP_temperature;BMP_pressure;BME280_temperature;BME280_humidity;BME280_pressure;Samples;Min_cycle;Max_cycle;Signal;HPM_P1;HPM_P2
2022/03/28 00:00:21;;;;;;;1999.90;999.90;;;11.40;99.90;;;;;;5033709;28;20513;-67
2022/03/28 00:02:46;;;;;;;1999.90;999.90;;;11.30;99.90;;;;;;5033663;28;20713;-67
2022/03/28 00:05:14;;;;;;;1999.90;999.90;;;11.30;99.90;;;;;;5033310;28;20510;-67
2022/03/28 00:07:41;;;;;;;1999.90;999.90;;;11.30;99.90;;;;;;5033572;28;20263;-66
2022/03/28 00:10:07;;;;;;;1999.90;999.90;;;11.20;99.90;;;;;;5033454;28;20921;-67
2022/03/28 00:12:34;;;;;;;1999.90;999.90;;;11.10;99.90;;;;;;5033518;28;20415;-67
2022/03/28 00:15:00;;;;;;;1999.90;999.90;;;11.20;99.90;;;;;;5033199;28;20442;-67
2022/03/28 00:17:25;;;;;;;1999.90;999.90;;;11.10;99.90;;;;;;5033415;28;20486;-67
2022/03/28 00:19:51;;;;;;;1999.90;999.90;;;11.10;99.90;;;;;;5033342;28;20457;-67
2022/03/28 00:22:16;;;;;;;1999.90;999.90;;;11.00;99.90;;;;;;5033220;28;20200;-67
2022/03/28 00:24:42;;;;;;;1999.90;999.90;;;11.00;99.90;;;;;;5033089;28;20196;-67
2022/03/28 00:27:08;;;;;;;1999.90;999.90;;;11.00;99.90;;;;;;5032639;28;20180;-67
2022/03/28 00:29:33;;;;;;;1999.90;999.90;;;11.00;99.90;;;;;;5033175;28;20602;-67
2022/03/28 00:31:59;;;;;;;1999.90;999.90;;;11.00;99.90;;;;;;5033083;28;20211;-67
2022/03/28 00:34:24;;;;;;;1999.90;999.90;;;11.10;99.90;;;;;;5032824;28;20537;-67
2022/03/28 00:36:51;;;;;;;1999.90;999.90;;;10.90;99.90;;;;;;5033021;28;20179;-67
2022/03/28 00:39:20;;;;;;;1999.90;999.90;;;10.80;99.90;;;;;;5033483;23;20319;-70
2022/03/28 00:41:50;;;;;;;1999.90;999.90;;;10.80;99.90;;;;;;5014373;28;20418;-70
2022/03/28 00:44:16;;;;;;;1999.90;999.90;;;10.70;99.90;;;;;;5015258;28;20836;-70
2022/03/28 00:46:42;;;;;;;1999.90;999.90;;;10.60;99.90;;;;;;5015218;28;20888;-70
2022/03/28 00:49:08;;;;;;;1999.90;999.90;;;10.60;99.90;;;;;;5014632;28;20419;-70
2022/03/28 00:51:34;;;;;;;1999.90;999.90;;;10.50;99.90;;;;;;5014969;28;20465;-70
2022/03/28 00:54:00;;;;;;;1999.90;999.90;;;10.50;99.90;;;;;;5014483;28;20173;-70
2022/03/28 00:56:27;;;;;;;1999.90;999.90;;;10.60;99.90;;;;;;5015013;28;20408;-70
2022/03/28 00:58:52;;;;;;;1999.90;999.90;;;10.50;99.90;;;;;;5013460;28;20505;-70
2022/03/28 01:01:18;;;;;;;1999.90;999.90;;;10.50;99.90;;;;;;5014887;28;20431;-70
2022/03/28 01:03:44;;;;;;;1999.90;999.90;;;10.50;99.90;;;;;;5015029;28;20168;-70
2022/03/28 01:06:09;;;;;;;1999.90;999.90;;;10.40;99.90;;;;;;5012884;28;20191;-70
2022/03/28 01:08:35;;;;;;;1999.90;999.90;;;10.40;99.90;;;;;;5014409;28;20443;-70
2022/03/28 01:11:08;;;;;;;1999.90;999.90;;;10.40;99.90;;;;;;5014372;28;20187;-71
2022/03/28 01:13:34;;;;;;;1999.90;999.90;;;10.40;99.90;;;;;;5014011;28;20469;-70
2022/03/28 01:16:01;;;;;;;1999.90;999.90;;;10.40;99.90;;;;;;5014896;28;20434;-70
2022/03/28 01:18:27;;;;;;;1999.90;999.90;;;10.40;99.90;;;;;;5013512;28;20455;-70
2022/03/28 01:21:00;;;;;;;1999.90;999.90;;;10.40;99.90;;;;;;5013990;28;20411;-70
2022/03/28 01:23:26;;;;;;;1999.90;999.90;;;10.30;99.90;;;;;;5013575;28;20404;-69
2022/03/28 01:25:53;;;;;;;1999.90;999.90;;;10.30;99.90;;;;;;5013596;28;20902;-70
2022/03/28 01:28:20;;;;;;;1999.90;999.90;;;10.20;99.90;;;;;;5013136;28;20848;-70
2022/03/28 01:30:47;;;;;;;1999.90;999.90;;;10.10;99.90;;;;;;5013171;28;20419;-70
2022/03/28 01:33:13;;;;;;;1999.90;999.90;;;10.10;99.90;;;;;;5012910;28;20442;-71
2022/03/28 01:35:40;;;;;;;1999.90;999.90;;;10.00;99.90;;;;;;5012943;28;20459;-70
2022/03/28 01:38:08;;;;;;;1999.90;999.90;;;10.10;99.90;;;;;;5011828;28;21003;-69
2022/03/28 01:40:38;;;;;;;1999.90;999.90;;;9.90;99.90;;;;;;5013047;28;20404;-70
2022/03/28 01:43:03;;;;;;;1999.90;999.90;;;9.80;99.90;;;;;;5012961;28;20493;-70
2022/03/28 01:45:30;;;;;;;1999.90;999.90;;;9.90;99.90;;;;;;5013016;28;20450;-70
2022/03/28 01:47:56;;;;;;;1999.90;999.90;;;9.80;99.90;;;;;;5013314;28;20192;-70
2022/03/28 01:50:22;;;;;;;1999.90;999.90;;;9.70;99.90;;;;;;5013080;28;20407;-70
2022/03/28 01:52:48;;;;;;;1999.90;999.90;;;9.60;99.90;;;;;;5013535;28;20995;-70
2022/03/28 01:55:14;;;;;;;1999.90;999.90;;;9.60;99.90;;;;;;5013953;28;20447;-70
2022/03/28 01:57:41;;;;;;;1999.90;999.90;;;9.50;99.90;;;;;;5013938;28;20216;-70
2022/03/28 02:00:09;;;;;;;1999.90;999.90;;;9.50;99.90;;;;;;5013823;28;20413;-70
2022/03/28 02:02:35;;;;;;;1999.90;999.90;;;9.50;99.90;;;;;;5012766;28;20418;-70
2022/03/28 02:05:01;;;;;;;1999.90;999.90;;;9.50;99.90;;;;;;5013933;28;20466;-70
2022/03/28 02:07:27;;;;;;;1999.90;999.90;;;9.50;99.90;;;;;;5013842;28;20975;-70
2022/03/28 02:09:52;;;;;;;1999.90;999.90;;;9.50;99.90;;;;;;5013937;28;20168;-70
2022/03/28 02:12:18;;;;;;;1999.90;999.90;;;9.50;99.90;;;;;;5014027;28;20184;-70
2022/03/28 02:14:43;;;;;;;1999.90;999.90;;;9.50;99.90;;;;;;5014106;28;20179;-70
2022/03/28 02:17:09;;;;;;;1999.90;999.90;;;9.50;99.90;;;;;;5013542;28;20203;-69
2022/03/28 02:19:35;;;;;;;1999.90;999.90;;;9.40;99.90;;;;;;5013880;28;20223;-70
2022/03/28 02:22:01;;;;;;;1999.90;999.90;;;9.40;99.90;;;;;;5013439;28;20168;-70
2022/03/28 02:24:27;;;;;;;1999.90;999.90;;;9.30;99.90;;;;;;5013132;28;20413;-70
2022/03/28 02:26:54;;;;;;;1999.90;999.90;;;9.30;99.90;;;;;;5013208;28;20168;-70
2022/03/28 02:29:20;;;;;;;1999.90;999.90;;;9.20;99.90;;;;;;5012760;28;20194;-70
2022/03/28 02:31:46;;;;;;;1999.90;999.90;;;9.20;99.90;;;;;;5012524;28;20408;-70
2022/03/28 02:34:11;;;;;;;1999.90;999.90;;;9.20;99.90;;;;;;5012542;28;20503;-69
2022/03/28 02:36:37;;;;;;;1999.90;999.90;;;9.10;99.90;;;;;;5012563;28;20179;-70
2022/03/28 02:39:03;;;;;;;1999.90;999.90;;;9.10;99.90;;;;;;5012457;28;20632;-70
2022/03/28 02:41:28;;;;;;;1999.90;999.90;;;8.90;99.90;;;;;;5012672;28;20719;-70
2022/03/28 02:43:54;;;;;;;1999.90;999.90;;;8.90;99.90;;;;;;5012484;28;20168;-69
2022/03/28 02:46:19;;;;;;;1999.90;999.90;;;8.90;99.90;;;;;;5012208;28;20568;-70
2022/03/28 02:48:45;;;;;;;1999.90;999.90;;;8.90;99.90;;;;;;5012449;28;20286;-70
2022/03/28 02:51:10;;;;;;;1999.90;999.90;;;8.80;99.90;;;;;;5015721;28;20588;-70
2022/03/28 02:53:36;;;;;;;1999.90;999.90;;;8.70;99.90;;;;;;5015958;28;20171;-70
2022/03/28 02:56:02;;;;;;;1999.90;999.90;;;8.70;99.90;;;;;;5015304;28;20529;-70
2022/03/28 02:58:27;;;;;;;1999.90;999.90;;;8.70;99.90;;;;;;5015810;28;20201;-70
2022/03/28 03:00:53;;;;;;;1999.90;999.90;;;8.70;99.90;;;;;;5015757;28;20644;-70
2022/03/28 03:03:18;;;;;;;1999.90;999.90;;;8.70;99.90;;;;;;5015713;28;20714;-70
2022/03/28 03:05:44;;;;;;;1999.90;999.90;;;8.70;99.90;;;;;;5015152;28;20176;-69
2022/03/28 03:08:10;;;;;;;1999.90;999.90;;;8.70;99.90;;;;;;5015548;28;20192;-70
2022/03/28 03:10:35;;;;;;;1999.90;999.90;;;8.70;99.90;;;;;;5015686;28;20179;-71
2022/03/28 03:13:01;;;;;;;1999.90;999.90;;;8.70;99.90;;;;;;5015934;28;20168;-70
2022/03/28 03:15:27;;;;;;;1999.90;999.90;;;8.70;99.90;;;;;;5015610;28;20174;-70
2022/03/28 03:17:53;;;;;;;1999.90;999.90;;;8.60;99.90;;;;;;5015655;28;20208;-70
2022/03/28 03:20:18;;;;;;;1999.90;999.90;;;8.60;99.90;;;;;;5016169;28;20409;-70
2022/03/28 03:22:44;;;;;;;1999.90;999.90;;;8.60;99.90;;;;;;5014963;28;20251;-70
2022/03/28 03:25:10;;;;;;;1999.90;999.90;;;8.50;99.90;;;;;;5015528;28;20566;-70
2022/03/28 03:27:38;;;;;;;1999.90;999.90;;;8.30;99.90;;;;;;5015674;28;20189;-70
2022/03/28 03:30:08;;;;;;;1999.90;999.90;;;8.30;99.90;;;;;;5015776;28;20641;-70
2022/03/28 03:32:35;;;;;;;1999.90;999.90;;;8.20;99.90;;;;;;5015335;28;20400;-70
2022/03/28 03:35:02;;;;;;;1999.90;999.90;;;8.20;99.90;;;;;;5014590;28;20405;-71
2022/03/28 03:37:28;;;;;;;1999.90;999.90;;;8.20;99.90;;;;;;5014741;28;20453;-70
2022/03/28 03:39:54;;;;;;;1999.90;999.90;;;8.20;99.90;;;;;;5015201;28;20417;-70
2022/03/28 03:42:19;;;;;;;1999.90;999.90;;;8.30;99.90;;;;;;5014579;28;20415;-70
2022/03/28 03:44:45;;;;;;;1999.90;999.90;;;8.20;99.90;;;;;;5014252;28;20532;-69
2022/03/28 03:47:11;;;;;;;1999.90;999.90;;;8.30;99.90;;;;;;5014512;28;20169;-70
2022/03/28 03:49:36;;;;;;;1999.90;999.90;;;8.30;99.90;;;;;;5014414;28;20207;-70
2022/03/28 03:52:02;;;;;;;1999.90;999.90;;;8.20;99.90;;;;;;5014756;28;20170;-71
2022/03/28 03:54:28;;;;;;;1999.90;999.90;;;8.20;99.90;;;;;;5014152;28;20167;-70
2022/03/28 03:56:54;;;;;;;1999.90;999.90;;;8.20;99.90;;;;;;5014248;28;20463;-70
2022/03/28 03:59:19;;;;;;;1999.90;999.90;;;8.10;99.90;;;;;;5014164;28;20198;-71
2022/03/28 04:01:45;;;;;;;1999.90;999.90;;;8.10;99.90;;;;;;5013263;28;20200;-71
2022/03/28 04:04:12;;;;;;;1999.90;999.90;;;8.00;99.90;;;;;;5013748;28;20173;-71
2022/03/28 04:06:39;;;;;;;1999.90;999.90;;;8.00;99.90;;;;;;5014038;28;20628;-70
2022/03/28 04:09:05;;;;;;;1999.90;999.90;;;8.00;99.90;;;;;;5014084;28;20429;-70
2022/03/28 04:11:31;;;;;;;1999.90;999.90;;;7.90;99.90;;;;;;5014037;28;20444;-70
2022/03/28 04:13:57;;;;;;;1999.90;999.90;;;7.90;99.90;;;;;;5013801;28;20415;-70
2022/03/28 04:16:23;;;;;;;1999.90;999.90;;;7.90;99.90;;;;;;5013773;28;20208;-70
2022/03/28 04:18:49;;;;;;;1999.90;999.90;;;7.90;99.90;;;;;;5013806;28;20550;-70
2022/03/28 04:21:15;;;;;;;1999.90;999.90;;;8.00;99.90;;;;;;5013926;28;20491;-70
2022/03/28 04:23:40;;;;;;;1999.90;999.90;;;7.90;99.90;;;;;;5013900;28;20608;-71
2022/03/28 04:26:06;;;;;;;1999.90;999.90;;;8.00;99.90;;;;;;5012537;28;20630;-69
2022/03/28 04:28:32;;;;;;;1999.90;999.90;;;7.90;99.90;;;;;;5014154;28;20191;-70
2022/03/28 04:30:57;;;;;;;1999.90;999.90;;;7.90;99.90;;;;;;5013497;28;20178;-70
2022/03/28 04:33:23;;;;;;;1999.90;999.90;;;7.90;99.90;;;;;;5014823;28;20241;-70
2022/03/28 04:35:50;;;;;;;1999.90;999.90;;;7.90;99.90;;;;;;5013904;28;20407;-70
2022/03/28 04:38:16;;;;;;;1999.90;999.90;;;8.00;99.90;;;;;;5014424;28;20221;-71
2022/03/28 04:40:42;;;;;;;1999.90;999.90;;;7.70;99.90;;;;;;5014106;28;20408;-71
2022/03/28 04:43:08;;;;;;;1999.90;999.90;;;7.70;99.90;;;;;;5013776;28;20192;-70
2022/03/28 04:45:34;;;;;;;1999.90;999.90;;;7.60;99.90;;;;;;5013085;28;20405;-71
2022/03/28 04:48:00;;;;;;;1999.90;999.90;;;7.60;99.90;;;;;;5013324;28;20483;-70
2022/03/28 04:50:27;;;;;;;1999.90;999.90;;;7.60;99.90;;;;;;5013224;28;20891;-70
2022/03/28 04:52:53;;;;;;;1999.90;999.90;;;7.60;99.90;;;;;;5013332;28;20405;-70
2022/03/28 04:55:19;;;;;;;1999.90;999.90;;;7.60;99.90;;;;;;5013000;28;20418;-70
2022/03/28 04:57:45;;;;;;;1999.90;999.90;;;7.60;99.90;;;;;;5013128;28;20197;-70
2022/03/28 05:00:11;;;;;;;1999.90;999.90;;;7.50;99.90;;;;;;5013482;28;20547;-71
2022/03/28 05:02:37;;;;;;;1999.90;999.90;;;7.50;99.90;;;;;;5013511;28;20402;-70
2022/03/28 05:05:05;;;;;;;1999.90;999.90;;;7.50;99.90;;;;;;5012833;28;20400;-71
2022/03/28 05:07:31;;;;;;;1999.90;999.90;;;7.30;99.90;;;;;;5012763;28;20396;-71
2022/03/28 05:09:58;;;;;;;1999.90;999.90;;;7.20;99.90;;;;;;5013021;28;20404;-71
2022/03/28 05:12:24;;;;;;;1999.90;999.90;;;7.20;99.90;;;;;;5012743;28;20400;-71
2022/03/28 05:14:51;;;;;;;1999.90;999.90;;;7.20;99.90;;;;;;5012707;28;20404;-70
2022/03/28 05:17:24;;;;;;;1999.90;999.90;;;7.20;99.90;;;;;;5013054;28;20412;-71
2022/03/28 05:19:50;;;;;;;1999.90;999.90;;;7.20;99.90;;;;;;5013055;28;20437;-70
2022/03/28 05:22:17;;;;;;;1999.90;999.90;;;7.10;99.90;;;;;;5012933;28;20412;-70
2022/03/28 05:24:42;;;;;;;1999.90;999.90;;;7.00;99.90;;;;;;5012683;28;20494;-70
2022/03/28 05:27:08;;;;;;;1999.90;999.90;;;6.90;99.90;;;;;;5013124;28;20435;-70
2022/03/28 05:29:33;;;;;;;1999.90;999.90;;;6.90;99.90;;;;;;5012780;28;20195;-71
2022/03/28 05:31:59;;;;;;;1999.90;999.90;;;6.90;99.90;;;;;;5012682;28;20161;-70
2022/03/28 05:34:25;;;;;;;1999.90;999.90;;;6.90;99.90;;;;;;5012374;28;20208;-70
2022/03/28 05:36:51;;;;;;;1999.90;999.90;;;6.90;99.90;;;;;;5012630;28;20176;-71
2022/03/28 05:39:16;;;;;;;1999.90;999.90;;;7.00;99.90;;;;;;5012506;28;20215;-70
2022/03/28 05:41:42;;;;;;;1999.90;999.90;;;7.00;99.90;;;;;;5012858;28;20568;-71
2022/03/28 05:44:07;;;;;;;1999.90;999.90;;;7.10;99.90;;;;;;5012577;28;20162;-70
2022/03/28 05:46:33;;;;;;;1999.90;999.90;;;7.20;99.90;;;;;;5012862;28;20169;-70
2022/03/28 05:48:59;;;;;;;1999.90;999.90;;;7.30;99.90;;;;;;5012863;28;20197;-70
2022/03/28 05:51:25;;;;;;;1999.90;999.90;;;7.40;99.90;;;;;;5013594;28;20173;-71
2022/03/28 05:53:51;;;;;;;1999.90;999.90;;;7.60;99.90;;;;;;5013888;28;20415;-70
2022/03/28 05:56:17;;;;;;;1999.90;999.90;;;7.40;99.90;;;;;;5013490;28;20540;-70
2022/03/28 05:58:42;;;;;;;1999.90;999.90;;;7.30;99.90;;;;;;5013350;28;20463;-70
2022/03/28 06:01:08;;;;;;;1999.90;999.90;;;7.10;99.90;;;;;;5013417;28;20415;-71
2022/03/28 06:03:34;;;;;;;1999.90;999.90;;;7.20;99.90;;;;;;5013221;28;20224;-71
2022/03/28 06:06:02;;;;;;;1999.90;999.90;;;7.20;99.90;;;;;;5012700;28;20409;-71
2022/03/28 06:08:27;;;;;;;1999.90;999.90;;;7.20;99.90;;;;;;5012994;28;20536;-71
2022/03/28 06:10:55;;;;;;;1999.90;999.90;;;7.30;99.90;;;;;;5013248;28;20435;-71
2022/03/28 06:13:20;;;;;;;1999.90;999.90;;;7.30;99.90;;;;;;5012894;28;20176;-71
2022/03/28 06:15:46;;;;;;;1999.90;999.90;;;7.40;99.90;;;;;;5012870;28;20836;-71
2022/03/28 06:18:12;;;;;;;1999.90;999.90;;;7.50;99.90;;;;;;5012619;28;20724;-70
2022/03/28 06:20:38;;;;;;;1999.90;999.90;;;7.40;99.90;;;;;;5012775;28;20205;-71
2022/03/28 06:23:03;;;;;;;1999.90;999.90;;;7.50;99.90;;;;;;5013221;28;20240;-71
2022/03/28 06:25:29;;;;;;;1999.90;999.90;;;7.50;99.90;;;;;;5015133;28;20394;-69
2022/03/28 06:27:55;;;;;;;1999.90;999.90;;;7.50;99.90;;;;;;5016764;28;20567;-69
2022/03/28 06:30:21;;;;;;;1999.90;999.90;;;7.60;99.90;;;;;;5017702;28;20415;-70
2022/03/28 06:32:47;;;;;;;1999.90;999.90;;;7.70;99.90;;;;;;5018026;28;20405;-71
2022/03/28 06:35:13;;;;;;;1999.90;999.90;;;7.70;99.90;;;;;;5017253;28;20167;-71
2022/03/28 06:40:08;;;;;;;1999.90;999.90;;;7.60;99.90;;;;;;5014346;28;20445;-67
2022/03/28 06:42:34;;;;;;;1999.90;999.90;;;7.60;99.90;;;;;;5016020;28;20416;-67
2022/03/28 06:44:59;;;;;;;1999.90;999.90;;;7.60;99.90;;;;;;5015573;28;20878;-67
2022/03/28 06:47:25;;;;;;;1999.90;999.90;;;7.70;99.90;;;;;;5016094;28;20173;-68
2022/03/28 06:49:51;;;;;;;1999.90;999.90;;;7.90;99.90;;;;;;5016058;28;20189;-68
2022/03/28 06:52:17;;;;;;;1999.90;999.90;;;8.00;99.90;;;;;;5016365;28;20181;-67
2022/03/28 06:54:43;;;;;;;1999.90;999.90;;;8.20;99.90;;;;;;5016610;28;20547;-68
2022/03/28 06:57:08;;;;;;;1999.90;999.90;;;8.30;99.90;;;;;;5017347;28;20430;-67
2022/03/28 06:59:34;;;;;;;1999.90;999.90;;;8.40;99.90;;;;;;5017839;28;20215;-66
2022/03/28 07:01:59;;;;;;;1999.90;999.90;;;8.60;99.90;;;;;;5018111;28;20175;-68
2022/03/28 07:04:25;;;;;;;1999.90;999.90;;;8.80;99.90;;;;;;5017312;28;20197;-68
2022/03/28 07:06:51;;;;;;;1999.90;999.90;;;8.90;99.90;;;;;;5017136;28;20593;-67
2022/03/28 07:09:17;;;;;;;1999.90;999.90;;;9.00;99.90;;;;;;5017268;28;20465;-69
2022/03/28 07:11:43;;;;;;;1999.90;999.90;;;9.10;99.90;;;;;;5017515;28;20406;-68
2022/03/28 07:14:09;;;;;;;1999.90;999.90;;;9.20;99.90;;;;;;5017467;28;20268;-68
2022/03/28 07:16:35;;;;;;;1999.90;999.90;;;9.20;99.90;;;;;;5017358;28;20752;-67
2022/03/28 07:19:01;;;;;;;1999.90;999.90;;;9.30;99.90;;;;;;5018032;28;20207;-67
2022/03/28 07:21:27;;;;;;;1999.90;999.90;;;9.30;99.90;;;;;;5017377;28;20452;-68
2022/03/28 07:23:53;;;;;;;1999.90;999.90;;;9.30;99.90;;;;;;5017438;28;20571;-68
2022/03/28 07:26:22;;;;;;;1999.90;999.90;;;9.40;99.90;;;;;;5017437;28;20414;-67
2022/03/28 07:28:48;;;;;;;1999.90;999.90;;;9.50;99.90;;;;;;5016692;28;20893;-67
2022/03/28 07:31:13;;;;;;;1999.90;999.90;;;9.60;99.90;;;;;;5016886;28;20483;-67
2022/03/28 07:33:40;;;;;;;1999.90;999.90;;;9.70;99.90;;;;;;5017327;28;20171;-68
2022/03/28 07:36:07;;;;;;;1999.90;999.90;;;9.70;99.90;;;;;;5016564;28;20178;-68
2022/03/28 07:38:33;;;;;;;1999.90;999.90;;;9.90;99.90;;;;;;5016382;28;20471;-68
2022/03/28 07:40:59;;;;;;;1999.90;999.90;;;10.00;99.90;;;;;;5016632;28;20403;-67
2022/03/28 07:43:25;;;;;;;1999.90;999.90;;;10.20;99.90;;;;;;5016352;28;20414;-66
2022/03/28 07:45:53;;;;;;;1999.90;999.90;;;10.30;99.90;;;;;;5016152;28;20204;-68
2022/03/28 07:48:19;;;;;;;1999.90;999.90;;;10.30;99.90;;;;;;5016170;28;20605;-68
2022/03/28 07:50:45;;;;;;;1999.90;999.90;;;10.60;99.90;;;;;;5016539;28;20435;-68
2022/03/28 07:53:12;;;;;;;1999.90;999.90;;;10.70;99.90;;;;;;5015975;28;20412;-67
2022/03/28 07:55:39;;;;;;;1999.90;999.90;;;10.80;99.90;;;;;;5015952;28;20411;-67
2022/03/28 07:58:06;;;;;;;1999.90;999.90;;;10.90;99.90;;;;;;5015678;28;20466;-68
2022/03/28 08:00:32;;;;;;;1999.90;999.90;;;11.00;99.90;;;;;;5015452;28;20408;-68
2022/03/28 08:02:58;;;;;;;1999.90;999.90;;;11.20;99.90;;;;;;5015570;28;20408;-67
2022/03/28 08:05:24;;;;;;;1999.90;999.90;;;11.30;99.90;;;;;;5015235;28;20414;-68
2022/03/28 08:07:51;;;;;;;1999.90;999.90;;;11.50;99.90;;;;;;5015376;28;20502;-68
2022/03/28 08:10:18;;;;;;;1999.90;999.90;;;11.60;99.90;;;;;;5015458;28;20195;-68
2022/03/28 08:12:43;;;;;;;1999.90;999.90;;;11.70;99.90;;;;;;5016010;28;20447;-68
2022/03/28 08:15:13;;;;;;;1999.90;999.90;;;11.80;99.90;;;;;;5015352;28;20420;-68
2022/03/28 08:17:40;;;;;;;1999.90;999.90;;;11.90;99.90;;;;;;5015170;28;20165;-68
2022/03/28 08:20:09;;;;;;;1999.90;999.90;;;11.90;99.90;;;;;;5013063;28;20423;-68
2022/03/28 08:22:44;;;;;;;1999.90;999.90;;;11.90;99.90;;;;;;5013531;28;20419;-67
2022/03/28 08:25:10;;;;;;;1999.90;999.90;;;12.00;99.90;;;;;;5013307;28;20465;-68
2022/03/28 08:27:35;;;;;;;1999.90;999.90;;;12.10;99.90;;;;;;5014118;28;20400;-67
2022/03/28 08:30:01;;;;;;;1999.90;999.90;;;12.30;99.90;;;;;;5014659;28;20199;-68
2022/03/28 08:32:27;;;;;;;1999.90;999.90;;;12.40;99.90;;;;;;5015218;28;20400;-69
2022/03/28 08:34:52;;;;;;;1999.90;999.90;;;12.60;99.90;;;;;;5017569;28;20166;-67
2022/03/28 08:37:18;;;;;;;1999.90;999.90;;;12.70;99.90;;;;;;5018031;28;20166;-68
2022/03/28 08:39:45;;;;;;;1999.90;999.90;;;12.80;99.90;;;;;;5016983;28;20260;-68
2022/03/28 08:42:12;;;;;;;1999.90;999.90;;;13.00;99.90;;;;;;5016950;28;20174;-67
2022/03/28 08:44:39;;;;;;;1999.90;999.90;;;13.10;99.90;;;;;;5016253;28;20408;-68
2022/03/28 08:47:06;;;;;;;1999.90;999.90;;;13.20;99.90;;;;;;5015737;28;20409;-67
2022/03/28 08:49:31;;;;;;;1999.90;999.90;;;13.40;99.90;;;;;;5015961;28;20448;-67
2022/03/28 08:51:57;;;;;;;1999.90;999.90;;;13.50;99.90;;;;;;5011739;28;21289;-67
2022/03/28 08:54:22;;;;;;;1999.90;999.90;;;13.60;99.90;;;;;;5010959;28;20177;-67
2022/03/28 08:56:48;;;;;;;1999.90;999.90;;;13.70;99.90;;;;;;5012559;28;20176;-67
2022/03/28 08:59:14;;;;;;;1999.90;999.90;;;13.80;99.90;;;;;;5012060;28;20209;-67
2022/03/28 09:01:41;;;;;;;1999.90;999.90;;;13.90;99.90;;;;;;5012651;28;20233;-67
2022/03/28 09:04:08;;;;;;;1999.90;999.90;;;14.00;99.90;;;;;;5013893;28;20939;-67
2022/03/28 09:06:38;;;;;;;1999.90;999.90;;;14.20;99.90;;;;;;5022694;28;20462;-68
2022/03/28 09:09:25;;;;;;;1999.90;999.90;;;14.20;99.90;;;;;;5016795;28;20437;-68
2022/03/28 09:11:55;;;;;;;1999.90;999.90;;;14.20;99.90;;;;;;5012311;28;20412;-67
2022/03/28 09:14:25;;;;;;;1999.90;999.90;;;14.20;99.90;;;;;;5012699;28;20434;-67
2022/03/28 09:17:11;;;;;;;1999.90;999.90;;;14.40;99.90;;;;;;5012150;28;21225;-67
2022/03/28 09:19:48;;;;;;;1999.90;999.90;;;14.50;99.90;;;;;;5012161;28;20451;-67
2022/03/28 09:22:19;;;;;;;1999.90;999.90;;;14.60;99.90;;;;;;5017050;28;20507;-68
2022/03/28 09:24:45;;;;;;;1999.90;999.90;;;14.70;99.90;;;;;;5011657;28;20814;-67
2022/03/28 09:27:21;;;;;;;1999.90;999.90;;;14.80;99.90;;;;;;5012091;28;20404;-68
2022/03/28 09:29:58;;;;;;;1999.90;999.90;;;14.80;99.90;;;;;;5011581;28;20423;-67
2022/03/28 09:32:30;;;;;;;1999.90;999.90;;;14.90;99.90;;;;;;5012052;28;20450;-68
2022/03/28 09:35:13;;;;;;;1999.90;999.90;;;15.00;99.90;;;;;;5011381;28;20832;-68
2022/03/28 09:37:56;;;;;;;1999.90;999.90;;;15.10;99.90;;;;;;5011367;28;20396;-67
2022/03/28 09:40:29;;;;;;;1999.90;999.90;;;15.20;99.90;;;;;;5015311;28;20505;-67
2022/03/28 09:42:56;;;;;;;1999.90;999.90;;;15.30;99.90;;;;;;5011797;28;20417;-67
2022/03/28 09:45:27;;;;;;;1999.90;999.90;;;15.50;99.90;;;;;;5011373;28;20405;-67
2022/03/28 09:48:08;;;;;;;1999.90;999.90;;;15.60;99.90;;;;;;5011865;28;20387;-67
2022/03/28 09:50:39;;;;;;;1999.90;999.90;;;15.80;99.90;;;;;;5012082;28;20470;-67
2022/03/28 09:53:12;;;;;;;1999.90;999.90;;;16.00;99.90;;;;;;5011344;28;20416;-67
2022/03/28 09:55:49;;;;;;;1999.90;999.90;;;16.10;99.90;;;;;;5011164;28;20394;-67
2022/03/28 09:58:35;;;;;;;1999.90;999.90;;;16.30;99.90;;;;;;5011432;28;20453;-67
2022/03/28 10:01:08;;;;;;;1999.90;999.90;;;16.50;99.90;;;;;;5015669;28;20409;-67
2022/03/28 10:03:35;;;;;;;1999.90;999.90;;;16.60;99.90;;;;;;5015904;28;20400;-67
2022/03/28 10:06:03;;;;;;;1999.90;999.90;;;16.80;99.90;;;;;;5014180;28;20426;-67
2022/03/28 10:08:29;;;;;;;1999.90;999.90;;;16.90;99.90;;;;;;5015445;28;20431;-67
2022/03/28 10:10:57;;;;;;;1999.90;999.90;;;17.00;99.90;;;;;;5015692;28;20534;-67
2022/03/28 10:13:23;;;;;;;1999.90;999.90;;;17.20;99.90;;;;;;5015200;28;20416;-67
2022/03/28 10:15:50;;;;;;;1999.90;999.90;;;17.50;99.90;;;;;;5015404;28;20423;-68
2022/03/28 10:18:16;;;;;;;1999.90;999.90;;;17.60;99.90;;;;;;5015366;28;20450;-68
2022/03/28 10:20:46;;;;;;;1999.90;999.90;;;17.60;99.90;;;;;;5015000;28;20440;-67
2022/03/28 10:23:16;;;;;;;1999.90;999.90;;;17.70;99.90;;;;;;5014144;28;20203;-67
2022/03/28 10:25:43;;;;;;;1999.90;999.90;;;17.70;99.90;;;;;;5014791;28;20418;-67
2022/03/28 10:28:09;;;;;;;1999.90;999.90;;;17.60;99.90;;;;;;5014682;28;21307;-68
2022/03/28 10:30:35;;;;;;;1999.90;999.90;;;17.70;99.90;;;;;;5015388;28;20408;-68
2022/03/28 10:33:09;;;;;;;1999.90;999.90;;;17.90;99.90;;;;;;5015122;28;20471;-67
2022/03/28 10:35:36;;;;;;;1999.90;999.90;;;17.90;99.90;;;;;;5013982;28;20505;-68
2022/03/28 10:38:18;;;;;;;1999.90;999.90;;;18.00;99.90;;;;;;5014664;28;20478;-68
2022/03/28 10:41:07;;;;;;;1999.90;999.90;;;18.10;99.90;;;;;;5015087;28;20457;-67
2022/03/28 10:43:34;;;;;;;1999.90;999.90;;;18.30;99.90;;;;;;5014785;28;20410;-68
2022/03/28 10:46:01;;;;;;;1999.90;999.90;;;18.50;99.90;;;;;;5014727;28;20408;-68
2022/03/28 10:48:43;;;;;;;1999.90;999.90;;;18.60;99.90;;;;;;5014788;28;20424;-68
2022/03/28 10:51:11;;;;;;;1999.90;999.90;;;18.80;99.90;;;;;;5014431;28;20412;-68
2022/03/28 10:53:41;;;;;;;1999.90;999.90;;;18.60;99.90;;;;;;5014903;28;20786;-68
2022/03/28 10:56:14;;;;;;;1999.90;999.90;;;18.40;99.90;;;;;;5014905;28;20403;-68
2022/03/28 10:58:42;;;;;;;1999.90;999.90;;;18.20;99.90;;;;;;5014371;28;20627;-68
2022/03/28 11:01:08;;;;;;;1999.90;999.90;;;18.50;99.90;;;;;;5014809;28;20412;-68
2022/03/28 11:03:41;;;;;;;1999.90;999.90;;;18.60;99.90;;;;;;5014881;28;20405;-68
2022/03/28 11:06:07;;;;;;;1999.90;999.90;;;18.90;99.90;;;;;;5014138;28;20320;-68
2022/03/28 11:08:36;;;;;;;1999.90;999.90;;;18.80;99.90;;;;;;5014539;28;20437;-68
2022/03/28 11:11:14;;;;;;;1999.90;999.90;;;19.00;99.90;;;;;;5014380;28;20834;-68
2022/03/28 11:13:39;;;;;;;1999.90;999.90;;;19.10;99.90;;;;;;5014270;28;20421;-68
2022/03/28 11:16:05;;;;;;;1999.90;999.90;;;18.90;99.90;;;;;;5013693;28;20919;-68
2022/03/28 11:18:31;;;;;;;1999.90;999.90;;;19.20;99.90;;;;;;5014248;28;20207;-68
2022/03/28 11:20:56;;;;;;;1999.90;999.90;;;19.20;99.90;;;;;;5014047;28;20217;-68
2022/03/28 11:23:22;;;;;;;1999.90;999.90;;;19.10;99.90;;;;;;5014144;28;20175;-68
2022/03/28 11:25:58;;;;;;;1999.90;999.90;;;19.00;99.90;;;;;;5013875;28;20214;-68
2022/03/28 11:28:24;;;;;;;1999.90;999.90;;;19.00;99.90;;;;;;5013811;28;20440;-68
2022/03/28 11:30:58;;;;;;;1999.90;999.90;;;19.10;99.90;;;;;;5014213;28;20414;-68
2022/03/28 11:33:39;;;;;;;1999.90;999.90;;;19.60;99.90;;;;;;5014458;28;20199;-68
2022/03/28 11:36:08;;;;;;;1999.90;999.90;;;19.70;99.90;;;;;;5013485;28;20511;-68
2022/03/28 11:38:40;;;;;;;1999.90;999.90;;;19.70;99.90;;;;;;5013978;28;20465;-68
2022/03/28 11:41:08;;;;;;;1999.90;999.90;;;19.70;99.90;;;;;;5014080;28;20897;-68
2022/03/28 11:43:39;;;;;;;1999.90;999.90;;;19.70;99.90;;;;;;5013514;28;20407;-68
2022/03/28 11:46:14;;;;;;;1999.90;999.90;;;19.60;99.90;;;;;;5013689;28;20409;-68
2022/03/28 11:48:57;;;;;;;1999.90;999.90;;;19.80;99.90;;;;;;5013809;28;20430;-67
2022/03/28 11:51:28;;;;;;;1999.90;999.90;;;20.10;99.90;;;;;;5013425;28;20405;-68
2022/03/28 11:54:16;;;;;;;1999.90;999.90;;;20.60;99.90;;;;;;5013779;28;20483;-68
2022/03/28 11:59:28;;;;;;;1999.90;999.90;;;21.80;99.90;;;;;;5013739;28;20987;-68
2022/03/28 12:01:59;;;;;;;1999.90;999.90;;;22.20;99.90;;;;;;5013778;28;20398;-68
2022/03/28 12:04:25;;;;;;;1999.90;999.90;;;22.50;99.90;;;;;;5012870;28;20374;-68
2022/03/28 12:06:52;;;;;;;1999.90;999.90;;;22.60;99.90;;;;;;5013824;28;20428;-68
2022/03/28 12:09:20;;;;;;;1999.90;999.90;;;22.40;99.50;;;;;;5013643;28;20276;-68